Terminal Aerodrome Forecast
Issued by NWS Grand Forks, ND

Home | Current Version | Previous Version | Graphics & Text | Print | Product List | Glossary On
Versions: 1 2 3 4 5 6 7 8 9 10 11 12 13 14 15 16 17 18 19 20
917
FTUS43 KFGF 071730
TAFFAR
TAF
KFAR 071730Z 0718/0818 30020G30KT P6SM OVC020
      TEMPO 0718/0721 3SM -SN BLSN
     FM080400 31019KT P6SM OVC012
     FM081300 31015KT P6SM OVC025=

USA.gov is the U.S. government's official web portal to all federal, state and local government web resources and services.